Pagina principale
METAR-TAF:

METAR-TAF

Aeroporti :

Arnhem, Paesi Bassi

latitudine: 52-04N, longitudine: 005-53E, altezza: 48 m

Osservazione

Il bollettino è stato emesso 16 minuti fa, alle 17:25 UTC
Vento 8 kt da direzioni variabili
Temperature 22°C
Umidità 35%
Pressione 1022 hPa
Visibilità 10 km o più
Cielo coperto ad un'altezza di 34000 ft

METAR: EHDL 311725Z AUTO VRB08KT 9999 OVC340 22/06 Q1022 BLU

Ora: 19:41 (17:41 UTC)


TAF: mancante

Osservazioni e previsioni meteorologiche di più di 4000 aeroporti (messaggi METAR e TAF).

Le stazioni disponibili sono rappresentate dai dischi gialli e rossi sulla carta.

Puntare il mouse per vedere il nome della stazione.

Clicca sopra per visualizzare le osservazioni e previsioni meteorologiche.

Per cambiare la mappa : fare clic sui pulsanti verdi con una croce nera per ingrandire, il pulsante verde con un trattino per diminuire, o sulla freccia verde per le mappe adiacenti.


METAR-TAF: